createdAt,value
2023-02-06T00:00:01.282Z,101737.94
2023-02-06T00:01:06.647Z,101736.11
2023-02-06T00:02:09.643Z,101729.78
2023-02-06T00:03:12.967Z,101728.77
2023-02-06T00:04:16.239Z,101728.77
2023-02-06T00:05:19.366Z,101730.38
2023-02-06T00:06:22.374Z,101730.27
2023-02-06T00:07:25.446Z,101726.72
2023-02-06T00:08:28.440Z,101728.66
2023-02-06T00:09:31.744Z,101725.98
2023-02-06T00:10:34.882Z,101729.52
2023-02-06T00:11:37.854Z,101728.55
2023-02-06T00:12:40.914Z,101730.27
2023-02-06T00:13:45.420Z,101731.12
2023-02-06T00:14:48.437Z,101732.94
2023-02-06T00:15:51.575Z,101730.27
2023-02-06T00:16:54.827Z,101732.94
2023-02-06T00:17:57.912Z,101728.55
2023-02-06T00:19:01.760Z,101723.18
2023-02-06T00:20:08.781Z,101724.89
2023-02-06T00:21:12.179Z,101724.89
2023-02-06T00:22:15.167Z,101721.20
2023-02-06T00:23:18.103Z,101721.20
2023-02-06T00:24:21.358Z,101724.74
2023-02-06T00:25:24.318Z,101718.29
2023-02-06T00:26:28.353Z,101720.86
2023-02-06T00:27:31.446Z,101727.80
2023-02-06T00:28:34.950Z,101723.05
2023-02-06T00:29:38.010Z,101730.10
2023-02-06T00:30:41.225Z,101728.16
2023-02-06T00:31:44.323Z,101723.88
2023-02-06T00:32:47.473Z,101732.78
2023-02-06T00:33:50.607Z,101726.83
2023-02-06T00:34:53.537Z,101737.67
2023-02-06T00:35:56.591Z,101732.45
2023-02-06T00:36:59.864Z,101737.83
2023-02-06T00:38:03.148Z,101735.25
2023-02-06T00:39:06.221Z,101738.80
2023-02-06T00:40:10.275Z,101736.11
2023-02-06T00:41:13.891Z,101728.91
2023-02-06T00:42:16.981Z,101739.77
2023-02-06T00:43:21.404Z,101738.05
2023-02-06T00:44:25.669Z,101743.68
2023-02-06T00:45:28.636Z,101739.40
2023-02-06T00:46:32.235Z,101737.83
2023-02-06T00:47:36.304Z,101738.06
2023-02-06T00:48:39.468Z,101743.53
2023-02-06T00:49:42.572Z,101738.06
2023-02-06T00:50:47.761Z,101748.79
2023-02-06T00:51:51.044Z,101738.91
2023-02-06T00:52:54.111Z,101745.52
2023-02-06T00:53:57.437Z,101745.02
2023-02-06T00:55:00.616Z,101739.03
2023-02-06T00:56:05.621Z,101746.37
2023-02-06T00:57:08.982Z,101740.14
2023-02-06T00:58:12.046Z,101736.60
2023-02-06T00:59:16.874Z,101738.43
2023-02-06T01:00:19.923Z,101739.51
2023-02-06T01:01:24.972Z,101741.48
2023-02-06T01:02:28.058Z,101738.05
2023-02-06T01:03:31.219Z,101734.77
2023-02-06T01:04:34.272Z,101739.65
2023-02-06T01:05:37.649Z,101736.59
2023-02-06T01:06:40.957Z,101743.17
2023-02-06T01:07:43.987Z,101741.45
2023-02-06T01:08:47.565Z,101747.67
2023-02-06T01:09:50.717Z,101741.45
2023-02-06T01:10:54.043Z,101740.60
2023-02-06T01:11:57.053Z,101741.68
2023-02-06T01:13:02.065Z,101740.83
2023-02-06T01:14:05.151Z,101736.45
2023-02-06T01:15:10.501Z,101734.64
2023-02-06T01:16:16.535Z,101736.31
2023-02-06T01:17:19.776Z,101737.06
2023-02-06T01:18:23.033Z,101733.52
2023-02-06T01:19:26.207Z,101737.31
2023-02-06T01:20:30.595Z,101737.54
2023-02-06T01:21:33.663Z,101740.69
2023-02-06T01:22:37.160Z,101731.08
2023-02-06T01:23:41.328Z,101732.16
2023-02-06T01:24:44.401Z,101736.80
2023-02-06T01:25:47.458Z,101741.30
2023-02-06T01:26:52.441Z,101736.80
2023-02-06T01:27:55.547Z,101735.80
2023-02-06T01:28:59.431Z,101739.23
2023-02-06T01:30:04.418Z,101740.95
2023-02-06T01:31:19.988Z,101733.76
2023-02-06T01:32:23.107Z,101743.62
2023-02-06T01:33:26.178Z,101740.95
2023-02-06T01:34:29.247Z,101751.67
2023-02-06T01:35:32.414Z,101741.91
2023-02-06T01:36:36.912Z,101737.52
2023-02-06T01:37:40.957Z,101747.52
2023-02-06T01:38:44.766Z,101741.42
2023-02-06T01:39:47.849Z,101745.06
2023-02-06T01:40:54.656Z,101742.37
2023-02-06T01:41:57.894Z,101747.74
2023-02-06T01:43:01.566Z,101746.78
2023-02-06T01:44:11.133Z,101749.35
2023-02-06T01:45:26.784Z,101745.81
2023-02-06T01:46:29.965Z,101743.34
2023-02-06T01:47:33.688Z,101747.50
2023-02-06T01:48:46.041Z,101742.46
2023-02-06T01:49:50.774Z,101747.22
2023-02-06T01:50:57.090Z,101745.97
2023-02-06T01:52:21.852Z,101742.67
2023-02-06T01:53:26.575Z,101753.00
2023-02-06T01:54:30.336Z,101747.23
2023-02-06T01:55:37.053Z,101745.87
2023-02-06T01:56:46.769Z,101752.44
2023-02-06T01:57:51.642Z,101755.23
2023-02-06T01:58:58.238Z,101746.33
2023-02-06T02:00:04.819Z,101747.33
2023-02-06T02:01:10.539Z,101750.01
2023-02-06T02:02:15.306Z,101744.41
2023-02-06T02:03:18.437Z,101743.34
2023-02-06T02:04:24.155Z,101746.84
2023-02-06T02:05:27.310Z,101749.52
2023-02-06T02:06:33.107Z,101748.80
2023-02-06T02:07:39.762Z,101747.95
2023-02-06T02:08:45.272Z,101746.23
2023-02-06T02:09:48.529Z,101754.16
2023-02-06T02:10:53.007Z,101755.87
2023-02-06T02:11:56.081Z,101755.98
2023-02-06T02:12:59.193Z,101758.77
2023-02-06T02:14:04.965Z,101756.33
2023-02-06T02:15:08.532Z,101760.08
2023-02-06T02:16:21.213Z,101760.21
2023-02-06T02:17:45.611Z,101757.64
2023-02-06T02:19:01.327Z,101762.03
2023-02-06T02:20:14.848Z,101750.33
2023-02-06T02:21:33.701Z,101760.94
2023-02-06T02:22:46.440Z,101759.22
2023-02-06T02:24:09.381Z,101765.67
2023-02-06T02:25:41.789Z,101760.53
2023-02-06T02:28:17.874Z,101768.63
2023-02-06T02:29:24.629Z,101770.38
2023-02-06T02:30:40.162Z,101771.38
2023-02-06T02:32:03.404Z,101766.34
2023-02-06T02:33:21.488Z,101759.61
2023-02-06T02:34:34.302Z,101764.45
2023-02-06T02:35:49.643Z,101769.09
2023-02-06T02:36:57.112Z,101760.92
2023-02-06T02:38:21.915Z,101765.10
2023-02-06T02:39:28.723Z,101763.90
2023-02-06T02:40:41.197Z,101759.30
2023-02-06T02:41:56.935Z,101768.91
2023-02-06T02:43:22.930Z,101767.09
2023-02-06T02:44:35.848Z,101766.02
2023-02-06T02:45:51.499Z,101760.32
2023-02-06T02:46:58.539Z,101768.11
2023-02-06T02:48:10.882Z,101770.92
2023-02-06T02:49:17.335Z,101766.53
2023-02-06T02:50:20.937Z,101773.61
2023-02-06T02:51:24.671Z,101771.89
2023-02-06T02:52:28.620Z,101767.25
2023-02-06T02:53:31.690Z,101771.75
2023-02-06T02:54:34.832Z,101770.92
2023-02-06T02:55:38.201Z,101773.92
2023-02-06T02:56:42.105Z,101763.45
2023-02-06T02:57:48.476Z,101769.77
2023-02-06T02:59:00.980Z,101758.95
2023-02-06T03:00:04.575Z,101770.38
2023-02-06T03:01:11.063Z,101773.06
2023-02-06T03:02:26.836Z,101768.80
2023-02-06T03:03:32.679Z,101762.70
2023-02-06T03:04:47.932Z,101769.25
2023-02-06T03:06:14.022Z,101768.74
2023-02-06T03:07:29.275Z,101761.77
2023-02-06T03:08:41.991Z,101770.56
2023-02-06T03:09:48.692Z,101770.32
2023-02-06T03:11:04.412Z,101769.36
2023-02-06T03:12:17.006Z,101772.89
2023-02-06T03:13:29.589Z,101770.11
2023-02-06T03:14:41.579Z,101762.83
2023-02-06T03:16:03.080Z,101762.59
2023-02-06T03:17:09.778Z,101767.84
2023-02-06T03:18:19.401Z,101760.88
2023-02-06T03:19:35.258Z,101761.73
2023-02-06T03:20:42.041Z,101767.95
2023-02-06T03:21:46.342Z,101767.20
2023-02-06T03:22:50.889Z,101765.51
2023-02-06T03:23:57.462Z,101766.58
2023-02-06T03:25:02.670Z,101763.14
2023-02-06T03:26:09.487Z,101765.83
2023-02-06T03:27:16.412Z,101761.33
2023-02-06T03:28:25.799Z,101768.50
2023-02-06T03:29:32.506Z,101769.36
2023-02-06T03:30:38.383Z,101767.44
2023-02-06T03:31:53.635Z,101770.87
2023-02-06T03:33:00.151Z,101763.66
2023-02-06T03:34:09.753Z,101771.59
2023-02-06T03:35:19.247Z,101770.52
2023-02-06T03:36:23.682Z,101779.28
2023-02-06T03:37:28.152Z,101769.31
2023-02-06T03:38:32.723Z,101768.11
2023-02-06T03:39:35.919Z,101770.58
2023-02-06T03:40:42.644Z,101773.88
2023-02-06T03:41:47.305Z,101769.98
2023-02-06T03:42:53.979Z,101771.49
2023-02-06T03:43:58.973Z,101765.89
2023-02-06T03:45:05.922Z,101772.11
2023-02-06T03:46:12.691Z,101763.20
2023-02-06T03:47:18.584Z,101773.17
2023-02-06T03:48:28.272Z,101771.59
2023-02-06T03:49:34.092Z,101766.45
2023-02-06T03:50:40.135Z,101769.27
2023-02-06T03:51:46.688Z,101770.23
2023-02-06T03:52:51.229Z,101779.13
2023-02-06T03:53:57.099Z,101768.63
2023-02-06T03:55:03.667Z,101780.44
2023-02-06T03:56:10.492Z,101776.90
2023-02-06T03:57:17.962Z,101770.79
2023-02-06T03:58:22.426Z,101773.81
2023-02-06T03:59:25.934Z,101776.73
2023-02-06T04:00:31.491Z,101777.91
2023-02-06T04:01:34.734Z,101778.25
2023-02-06T04:02:38.528Z,101782.64
2023-02-06T04:03:41.554Z,101779.00
2023-02-06T04:04:45.074Z,101788.75
2023-02-06T04:05:48.362Z,101780.58
2023-02-06T04:06:51.401Z,101787.89
2023-02-06T04:07:56.167Z,101783.61
2023-02-06T04:08:59.256Z,101789.06
2023-02-06T04:10:02.245Z,101789.20
2023-02-06T04:11:05.171Z,101789.30
2023-02-06T04:12:08.635Z,101788.45
2023-02-06T04:13:11.605Z,101790.27
2023-02-06T04:14:14.648Z,101793.80
2023-02-06T04:15:17.700Z,101796.37
2023-02-06T04:16:20.787Z,101786.63
2023-02-06T04:17:40.715Z,101791.23
2023-02-06T04:18:28.737Z,101794.25
2023-02-06T04:19:32.405Z,101796.30
2023-02-06T04:20:37.673Z,101790.30
2023-02-06T04:21:40.561Z,101795.98
2023-02-06T04:22:43.515Z,101803.30
2023-02-06T04:23:46.883Z,101803.50
2023-02-06T04:24:49.850Z,101797.28
2023-02-06T04:25:52.818Z,101797.28
2023-02-06T04:26:56.211Z,101797.19
2023-02-06T04:27:59.336Z,101798.80
2023-02-06T04:29:02.298Z,101806.59
2023-02-06T04:30:06.055Z,101804.67
2023-02-06T04:31:09.414Z,101796.64
2023-02-06T04:32:12.359Z,101810.02
2023-02-06T04:33:15.346Z,101803.68
2023-02-06T04:34:18.525Z,101804.44
2023-02-06T04:35:21.745Z,101805.30
2023-02-06T04:36:24.898Z,101812.37
2023-02-06T04:37:27.965Z,101817.72
2023-02-06T04:38:31.034Z,101815.05
2023-02-06T04:39:34.018Z,101811.41
2023-02-06T04:40:37.093Z,101811.27
2023-02-06T04:41:40.132Z,101822.73
2023-02-06T04:42:43.173Z,101815.45
2023-02-06T04:43:46.190Z,101820.58
2023-02-06T04:44:49.238Z,101820.37
2023-02-06T04:45:52.207Z,101823.67
2023-02-06T04:46:55.256Z,101819.17
2023-02-06T04:47:59.536Z,101821.75
2023-02-06T04:49:02.847Z,101825.15
2023-02-06T04:50:07.024Z,101825.05
2023-02-06T04:51:10.002Z,101827.38
2023-02-06T04:52:13.184Z,101830.58
2023-02-06T04:53:16.871Z,101821.47
2023-02-06T04:54:19.978Z,101828.41
2023-02-06T04:55:23.213Z,101835.38
2023-02-06T04:56:26.389Z,101830.88
2023-02-06T04:57:29.481Z,101831.60
2023-02-06T04:58:33.038Z,101831.39
2023-02-06T04:59:36.113Z,101839.09
2023-02-06T05:00:39.400Z,101839.70
2023-02-06T05:01:42.517Z,101831.45
2023-02-06T05:02:45.497Z,101834.86
2023-02-06T05:03:48.494Z,101832.31
2023-02-06T05:04:51.489Z,101834.13
2023-02-06T05:05:55.353Z,101833.27
2023-02-06T05:06:58.488Z,101835.85
2023-02-06T05:08:01.439Z,101835.09
2023-02-06T05:09:05.629Z,101833.27
2023-02-06T05:10:09.405Z,101833.27
2023-02-06T05:11:12.598Z,101838.53
2023-02-06T05:12:15.565Z,101837.78
2023-02-06T05:13:22.266Z,101834.34
2023-02-06T05:14:25.412Z,101832.88
2023-02-06T05:15:28.589Z,101834.93
2023-02-06T05:16:31.684Z,101830.02
2023-02-06T05:17:35.036Z,101826.83
2023-02-06T05:18:38.296Z,101819.14
2023-02-06T05:19:41.265Z,101820.20
2023-02-06T05:20:44.647Z,101818.59
2023-02-06T05:21:47.685Z,101822.27
2023-02-06T05:22:50.750Z,101823.13
2023-02-06T05:23:53.842Z,101815.09
2023-02-06T05:24:56.802Z,101821.52
2023-02-06T05:26:00.517Z,101820.99
2023-02-06T05:27:03.706Z,101818.76
2023-02-06T05:28:07.448Z,101817.28
2023-02-06T05:29:10.558Z,101831.97
2023-02-06T05:30:14.073Z,101830.45
2023-02-06T05:31:20.631Z,101825.33
2023-02-06T05:32:23.584Z,101836.14
2023-02-06T05:33:26.867Z,101834.42
2023-02-06T05:34:30.075Z,101832.73
2023-02-06T05:35:33.251Z,101836.38
2023-02-06T05:36:36.375Z,101832.94
2023-02-06T05:37:39.490Z,101830.39
2023-02-06T05:38:42.517Z,101832.94
2023-02-06T05:39:45.557Z,101836.48
2023-02-06T05:40:50.899Z,101836.48
2023-02-06T05:41:53.979Z,101837.67
2023-02-06T05:42:57.098Z,101841.53
2023-02-06T05:44:00.145Z,101838.44
2023-02-06T05:45:03.464Z,101849.47
2023-02-06T05:46:06.536Z,101846.89
2023-02-06T05:47:09.599Z,101844.31
2023-02-06T05:48:12.693Z,101846.13
2023-02-06T05:49:15.911Z,101849.77
2023-02-06T05:50:18.963Z,101851.61
2023-02-06T05:51:22.276Z,101839.82
2023-02-06T05:52:25.434Z,101852.24
2023-02-06T05:53:28.508Z,101845.08
2023-02-06T05:54:31.483Z,101848.70
2023-02-06T05:55:34.842Z,101846.03
2023-02-06T05:56:38.044Z,101856.84
2023-02-06T05:57:40.995Z,101845.41
2023-02-06T05:58:43.984Z,101855.12
2023-02-06T05:59:46.918Z,101852.44
2023-02-06T06:00:50.071Z,101847.84
2023-02-06T06:01:53.430Z,101853.96
2023-02-06T06:02:56.530Z,101852.14
2023-02-06T06:03:59.729Z,101858.13
2023-02-06T06:05:03.193Z,101856.94
2023-02-06T06:06:06.947Z,101849.44
2023-02-06T06:07:10.284Z,101853.63
2023-02-06T06:08:13.404Z,101853.39
2023-02-06T06:09:16.691Z,101856.93
2023-02-06T06:10:20.475Z,101858.75
2023-02-06T06:11:23.651Z,101858.75
2023-02-06T06:12:26.960Z,101863.23
2023-02-06T06:13:30.235Z,101859.70
2023-02-06T06:14:33.654Z,101862.62
2023-02-06T06:15:36.946Z,101857.36
2023-02-06T06:16:41.283Z,101860.04
2023-02-06T06:17:44.333Z,101859.08
2023-02-06T06:18:47.301Z,101859.94
2023-02-06T06:19:50.265Z,101863.47
2023-02-06T06:20:53.526Z,101857.27
2023-02-06T06:21:58.230Z,101859.08
2023-02-06T06:23:01.461Z,101856.30
2023-02-06T06:24:04.577Z,101854.48
2023-02-06T06:25:07.951Z,101864.09
2023-02-06T06:26:11.275Z,101858.52
2023-02-06T06:27:14.666Z,101864.63
2023-02-06T06:28:17.692Z,101859.17
2023-02-06T06:29:20.905Z,101866.11
2023-02-06T06:30:23.883Z,101858.84
2023-02-06T06:31:27.003Z,101865.91
2023-02-06T06:32:30.160Z,101865.05
2023-02-06T06:33:33.791Z,101869.78
2023-02-06T06:34:37.279Z,101861.19
2023-02-06T06:35:40.231Z,101864.20
2023-02-06T06:36:43.517Z,101868.92
2023-02-06T06:37:46.865Z,101869.16
2023-02-06T06:38:50.054Z,101873.75
2023-02-06T06:39:53.136Z,101873.85
2023-02-06T06:40:56.140Z,101871.27
2023-02-06T06:41:59.255Z,101878.48
2023-02-06T06:43:02.334Z,101877.62
2023-02-06T06:44:05.532Z,101878.34
2023-02-06T06:45:08.968Z,101878.34
2023-02-06T06:46:13.455Z,101878.25
2023-02-06T06:47:16.662Z,101878.25
2023-02-06T06:48:19.785Z,101880.92
2023-02-06T06:49:25.373Z,101879.20
2023-02-06T06:50:28.697Z,101884.55
2023-02-06T06:51:31.740Z,101877.38
2023-02-06T06:52:35.059Z,101881.78
2023-02-06T06:53:39.378Z,101887.03
2023-02-06T06:54:42.898Z,101878.02
2023-02-06T06:55:45.991Z,101882.31
2023-02-06T06:56:49.065Z,101892.91
2023-02-06T06:57:52.059Z,101879.73
2023-02-06T06:58:55.191Z,101894.20
2023-02-06T06:59:58.819Z,101880.16
2023-02-06T07:01:02.164Z,101891.09
2023-02-06T07:02:05.421Z,101895.59
2023-02-06T07:03:08.581Z,101896.55
2023-02-06T07:04:11.643Z,101892.91
2023-02-06T07:05:14.865Z,101896.55
2023-02-06T07:06:18.644Z,101888.52
2023-02-06T07:07:22.142Z,101898.27
2023-02-06T07:08:25.334Z,101896.34
2023-02-06T07:09:28.425Z,101887.33
2023-02-06T07:10:31.482Z,101892.69
2023-02-06T07:11:34.440Z,101888.32
2023-02-06T07:12:37.740Z,101892.69
2023-02-06T07:13:41.707Z,101897.20
2023-02-06T07:14:44.689Z,101888.42
2023-02-06T07:15:47.921Z,101891.09
2023-02-06T07:16:50.958Z,101882.11
2023-02-06T07:17:54.023Z,101889.18
2023-02-06T07:18:57.034Z,101886.38
2023-02-06T07:20:00.129Z,101887.03
2023-02-06T07:21:03.659Z,101883.27
2023-02-06T07:22:06.908Z,101882.41
2023-02-06T07:23:10.125Z,101887.76
2023-02-06T07:24:13.376Z,101885.31
2023-02-06T07:25:20.000Z,101884.66
2023-02-06T07:26:23.198Z,101884.98
2023-02-06T07:27:26.296Z,101887.03
2023-02-06T07:28:30.476Z,101888.08
2023-02-06T07:29:33.703Z,101884.78
2023-02-06T07:30:37.476Z,101884.14
2023-02-06T10:42:27.956Z,101834.69
2023-02-06T10:43:40.655Z,101839.69
2023-02-06T10:44:52.938Z,101834.43
2023-02-06T10:46:08.361Z,101832.83
2023-02-06T10:48:33.379Z,101845.20
2023-02-06T10:49:39.884Z,101838.08
2023-02-06T10:50:52.116Z,101841.73
2023-02-06T10:51:58.668Z,101833.68
2023-02-06T10:53:05.577Z,101834.54
2023-02-06T10:54:24.560Z,101834.19
2023-02-06T10:55:49.673Z,101838.48
2023-02-06T10:56:55.728Z,101830.93
2023-02-06T10:58:08.393Z,101838.73
2023-02-06T10:59:30.225Z,101840.33
2023-02-06T11:00:33.917Z,101829.71
2023-02-06T11:01:40.052Z,101837.76
2023-02-06T11:03:06.337Z,101834.86
2023-02-06T11:04:15.217Z,101832.78
2023-02-06T11:05:25.040Z,101835.97
2023-02-06T11:06:29.629Z,101834.64
2023-02-06T11:07:38.870Z,101836.95
2023-02-06T11:08:44.905Z,101833.09
2023-02-06T11:09:47.917Z,101830.75
2023-02-06T11:10:51.389Z,101828.45
2023-02-06T11:11:56.756Z,101825.40
2023-02-06T11:13:06.272Z,101827.00
2023-02-06T11:14:25.300Z,101830.28
2023-02-06T11:15:35.077Z,101837.14
2023-02-06T11:16:38.760Z,101836.89
2023-02-06T11:17:43.424Z,101829.58
2023-02-06T11:18:49.017Z,101825.18
2023-02-06T11:19:53.348Z,101827.13
2023-02-06T11:20:56.893Z,101831.63
2023-02-06T11:22:15.719Z,101824.44
2023-02-06T11:23:21.640Z,101828.09
2023-02-06T11:24:24.997Z,101822.98
2023-02-06T11:25:33.383Z,101829.43
2023-02-06T11:26:42.168Z,101823.46
2023-02-06T11:27:45.382Z,101824.43
2023-02-06T11:28:54.356Z,101825.28
2023-02-06T11:30:00.970Z,101827.60
2023-02-06T11:31:06.899Z,101816.50
2023-02-06T11:32:25.554Z,101827.50
2023-02-06T11:33:50.265Z,101833.13
2023-02-06T11:34:59.611Z,101834.20
2023-02-06T11:36:04.697Z,101835.55
2023-02-06T11:37:33.986Z,101837.86
2023-02-06T11:38:36.985Z,101830.28
2023-02-06T11:39:40.206Z,101837.96
2023-02-06T11:40:45.575Z,101836.87
2023-02-06T11:42:07.119Z,101842.14
2023-02-06T11:43:20.108Z,101836.61
2023-02-06T11:44:25.494Z,101842.25
2023-02-06T11:45:31.121Z,101846.40
2023-02-06T11:46:36.752Z,101845.92
2023-02-06T11:47:39.778Z,101858.75
2023-02-06T11:48:48.261Z,101841.78
2023-02-06T11:49:51.475Z,101852.41
2023-02-06T11:50:54.900Z,101849.58
2023-02-06T11:52:00.225Z,101849.72
2023-02-06T11:53:17.364Z,101851.77
2023-02-06T11:54:24.466Z,101854.95
2023-02-06T11:55:30.880Z,101856.66
2023-02-06T11:56:34.886Z,101854.45
2023-02-06T11:57:37.948Z,101850.20
2023-02-06T11:58:41.643Z,101859.23
2023-02-06T11:59:53.980Z,101854.08
2023-02-06T12:01:06.045Z,101851.53
2023-02-06T12:02:24.844Z,101859.81
2023-02-06T12:03:37.584Z,101856.75
2023-02-06T12:04:41.591Z,101871.86
2023-02-06T12:05:44.994Z,101860.25
2023-02-06T12:06:48.367Z,101856.56
2023-02-06T12:08:11.711Z,101864.36
2023-02-06T12:09:14.906Z,101862.25
2023-02-06T12:10:19.896Z,101862.32
2023-02-06T12:11:35.641Z,101868.63
2023-02-06T12:12:42.665Z,101876.62
2023-02-06T12:13:49.517Z,101868.63
2023-02-06T12:14:56.191Z,101866.63
2023-02-06T12:16:02.337Z,101862.58
2023-02-06T12:17:11.834Z,101867.94
2023-02-06T12:18:24.467Z,101870.48
2023-02-06T12:19:34.880Z,101863.20
2023-02-06T12:20:41.798Z,101867.46
2023-02-06T12:21:51.424Z,101860.93
2023-02-06T12:23:00.740Z,101861.44
2023-02-06T12:24:07.508Z,101869.99
2023-02-06T12:25:36.969Z,101863.32
2023-02-06T12:26:41.747Z,101862.12
2023-02-06T12:27:45.435Z,101865.30
2023-02-06T12:29:04.150Z,101861.45
2023-02-06T12:30:41.769Z,101861.09
2023-02-06T12:31:52.535Z,101867.93
2023-02-06T12:32:57.262Z,101868.68
2023-02-06T12:34:19.210Z,101863.42
2023-02-06T12:35:38.072Z,101867.31
2023-02-06T12:36:52.774Z,101869.48
2023-02-06T12:38:07.229Z,101867.98
2023-02-06T12:39:22.449Z,101873.24
2023-02-06T12:40:53.473Z,101872.03
2023-02-06T12:42:20.444Z,101861.70
2023-02-06T12:43:23.920Z,101866.61
2023-02-06T12:44:42.725Z,101865.51
2023-02-06T12:45:59.170Z,101869.55
2023-02-06T12:47:26.920Z,101864.58
2023-02-06T12:48:45.662Z,101870.45
2023-02-06T12:50:03.962Z,101870.13
2023-02-06T12:51:22.797Z,101876.09
2023-02-06T12:52:30.535Z,101879.00
2023-02-06T12:53:46.177Z,101868.63
2023-02-06T12:55:13.628Z,101863.61
2023-02-06T12:56:23.710Z,101866.66
2023-02-06T12:57:30.665Z,101867.97
2023-02-06T12:58:46.161Z,101876.23
2023-02-06T13:00:01.957Z,101878.41
2023-02-06T13:01:30.725Z,101871.69
2023-02-06T13:02:57.876Z,101876.67
2023-02-06T13:04:04.658Z,101882.49
2023-02-06T13:05:16.912Z,101877.34
2023-02-06T13:06:26.930Z,101888.81
2023-02-06T13:07:32.234Z,101888.06
2023-02-06T13:08:50.393Z,101878.44
2023-02-06T13:09:56.804Z,101883.91
2023-02-06T13:11:06.807Z,101874.39
2023-02-06T13:12:25.409Z,101876.42
2023-02-06T13:13:38.070Z,101874.73
2023-02-06T13:14:59.497Z,101877.52
2023-02-06T13:16:04.174Z,101877.63
2023-02-06T13:17:11.274Z,101867.25
2023-02-06T13:18:48.232Z,101871.75
2023-02-06T13:20:03.712Z,101871.86
2023-02-06T13:21:31.635Z,101875.73
2023-02-06T13:22:48.705Z,101875.33
2023-02-06T13:24:07.518Z,101871.17
2023-02-06T13:25:32.523Z,101871.17
2023-02-06T13:26:50.162Z,101870.41
2023-02-06T13:27:55.398Z,101871.41
2023-02-06T13:28:59.594Z,101871.51
2023-02-06T13:30:30.381Z,101875.15
2023-02-06T13:31:34.846Z,101877.93
2023-02-06T13:32:44.750Z,101883.63
2023-02-06T13:33:51.623Z,101876.69
2023-02-06T13:34:58.260Z,101886.55
2023-02-06T13:36:10.471Z,101881.05
2023-02-06T13:37:36.996Z,101884.38
2023-02-06T13:38:41.909Z,101888.55
2023-02-06T13:39:49.317Z,101882.13
2023-02-06T13:41:15.740Z,101880.16
2023-02-06T13:42:31.458Z,101886.38
2023-02-06T13:43:36.017Z,101889.06
2023-02-06T13:44:39.272Z,101891.12
2023-02-06T13:45:52.011Z,101885.01
2023-02-06T13:47:08.002Z,101889.61
2023-02-06T13:48:26.728Z,101883.63
2023-02-06T13:49:50.050Z,101889.22
2023-02-06T13:51:20.323Z,101886.74
2023-02-06T13:52:36.368Z,101892.34
2023-02-06T13:54:05.144Z,101883.88
2023-02-06T13:55:23.701Z,101891.39
2023-02-06T13:56:48.543Z,101893.64
2023-02-06T13:59:30.001Z,101888.52
2023-02-06T14:00:36.805Z,101893.11
2023-02-06T14:01:40.063Z,101900.41
2023-02-06T14:02:47.923Z,101905.77
2023-02-06T14:03:53.776Z,101908.55
2023-02-06T14:04:58.167Z,101907.69
2023-02-06T14:06:24.724Z,101909.50
2023-02-06T14:07:53.807Z,101911.31
2023-02-06T14:09:00.405Z,101907.05
2023-02-06T14:10:40.606Z,101917.86
2023-02-06T14:12:20.753Z,101916.03
2023-02-06T14:13:45.989Z,101918.81
2023-02-06T14:15:05.354Z,101923.30
2023-02-06T14:16:30.313Z,101925.25
2023-02-06T14:17:57.088Z,101930.80
2023-02-06T14:19:06.224Z,101926.62
2023-02-06T14:20:21.740Z,101935.84
2023-02-06T14:21:46.257Z,101939.47
2023-02-06T14:22:55.901Z,101927.14
2023-02-06T14:24:21.766Z,101935.72
2023-02-06T14:25:43.160Z,101939.53
2023-02-06T14:27:00.417Z,101945.20
2023-02-06T14:28:09.947Z,101943.61
2023-02-06T14:29:28.074Z,101948.95
2023-02-06T14:30:40.846Z,101950.64
2023-02-06T14:32:08.379Z,101957.94
2023-02-06T14:33:34.760Z,101950.87
2023-02-06T14:34:50.032Z,101947.42
2023-02-06T14:35:59.496Z,101953.63
2023-02-06T14:37:15.247Z,101946.47
2023-02-06T14:38:22.010Z,101955.36
2023-02-06T14:39:49.793Z,101956.22
2023-02-06T14:40:56.311Z,101958.89
2023-02-06T14:42:01.301Z,101953.63
2023-02-06T14:43:07.169Z,101951.92
2023-02-06T14:44:15.823Z,101953.77
2023-02-06T14:45:33.745Z,101957.27
2023-02-06T14:46:53.164Z,101960.92
2023-02-06T14:47:58.521Z,101964.45
2023-02-06T14:49:03.520Z,101970.77
2023-02-06T14:50:26.406Z,101969.81
2023-02-06T14:51:33.541Z,101961.78
2023-02-06T14:52:36.766Z,101975.03
2023-02-06T14:53:40.135Z,101963.38
2023-02-06T14:54:43.383Z,101977.52
2023-02-06T14:55:46.711Z,101978.38
2023-02-06T14:56:53.466Z,101972.91
2023-02-06T14:57:57.206Z,101974.62
2023-02-06T14:59:16.060Z,101970.99
2023-02-06T15:00:20.502Z,101971.85
2023-02-06T15:01:27.565Z,101975.39
2023-02-06T15:02:36.391Z,101983.50
2023-02-06T15:03:41.238Z,101987.13
2023-02-06T15:04:46.940Z,101987.23
2023-02-06T15:06:08.421Z,101987.36
2023-02-06T15:07:14.989Z,101993.75
2023-02-06T15:08:19.937Z,101992.16
2023-02-06T15:09:34.558Z,101996.64
2023-02-06T15:10:38.259Z,102002.09
2023-02-06T15:11:41.544Z,102000.48
2023-02-06T15:12:52.997Z,101995.97
2023-02-06T15:13:56.446Z,102002.95
2023-02-06T15:15:04.472Z,102015.45
2023-02-06T15:16:09.172Z,102012.02
2023-02-06T15:17:15.808Z,102019.08
2023-02-06T15:18:18.994Z,102017.36
2023-02-06T15:19:28.086Z,102019.95
2023-02-06T15:20:35.718Z,102017.17
2023-02-06T15:21:42.478Z,102021.58
2023-02-06T15:22:45.770Z,102019.76
2023-02-06T15:24:13.756Z,102025.75
2023-02-06T15:25:47.789Z,102026.52
2023-02-06T15:26:57.680Z,102020.86
2023-02-06T15:28:06.926Z,102016.37
2023-02-06T15:29:22.618Z,102021.72
2023-02-06T15:30:26.163Z,102020.00
2023-02-06T15:31:30.782Z,102018.06
2023-02-06T15:32:39.602Z,102015.29
2023-02-06T15:33:42.781Z,102014.34
2023-02-06T15:34:46.280Z,102010.70
2023-02-06T15:35:55.413Z,102009.94
2023-02-06T15:36:58.499Z,102011.75
2023-02-06T15:38:04.297Z,102008.22
2023-02-06T15:39:08.990Z,102011.75
2023-02-06T15:40:20.342Z,102014.43
2023-02-06T15:41:23.778Z,102006.53
2023-02-06T15:42:27.052Z,102012.92
2023-02-06T15:43:30.867Z,102018.49
2023-02-06T15:44:35.663Z,102018.68
2023-02-06T15:45:40.481Z,102026.80
2023-02-06T15:46:44.242Z,102024.34
2023-02-06T15:47:49.341Z,102026.37
2023-02-06T15:48:54.429Z,102026.64
2023-02-06T15:49:59.294Z,102028.03
2023-02-06T15:51:24.263Z,102031.01
2023-02-06T15:52:36.806Z,102027.66
2023-02-06T15:53:42.063Z,102033.09
2023-02-06T15:54:48.742Z,102029.68
2023-02-06T15:55:56.086Z,102036.06
2023-02-06T15:57:05.773Z,102030.94
2023-02-06T15:58:12.384Z,102039.91
2023-02-06T15:59:21.391Z,102041.62
2023-02-06T16:00:37.263Z,102038.00
2023-02-06T16:01:42.239Z,102041.53
2023-02-06T16:02:45.856Z,102038.00
2023-02-06T16:03:52.938Z,102045.03
2023-02-06T16:04:56.264Z,102047.71
2023-02-06T16:05:59.628Z,102048.69
2023-02-06T16:07:15.369Z,102047.83